createdAt,value
2023-03-11T00:04:33.912Z,9.00
2023-03-11T00:10:32.759Z,8.94
2023-03-11T00:13:18.038Z,8.94
2023-03-11T00:16:03.261Z,8.94
2023-03-11T00:35:12.966Z,8.68
2023-03-11T00:40:50.675Z,8.64
2023-03-11T00:43:38.006Z,8.63
2023-03-11T00:56:26.725Z,8.47
2023-03-11T01:02:50.954Z,8.45
2023-03-11T01:08:15.733Z,8.45
2023-03-11T01:11:01.178Z,8.41
2023-03-11T01:13:46.722Z,8.38
2023-03-11T01:19:48.255Z,8.29
2023-03-11T01:36:00.674Z,8.01
2023-03-11T01:38:45.770Z,7.99
2023-03-11T01:41:30.977Z,8.00
2023-03-11T01:44:28.352Z,8.00
2023-03-11T01:47:13.191Z,7.98
2023-03-11T01:49:58.341Z,7.96
2023-03-11T01:52:44.129Z,7.94
2023-03-11T01:55:31.412Z,7.92
2023-03-11T02:01:25.480Z,7.93
2023-03-11T02:07:12.274Z,7.89
2023-03-11T02:09:57.509Z,7.85
2023-03-11T02:12:43.577Z,7.83
2023-03-11T02:18:37.995Z,7.76
2023-03-11T02:21:29.393Z,7.71
2023-03-11T02:24:42.932Z,7.71
2023-03-11T02:30:15.751Z,7.64
2023-03-11T02:33:01.622Z,7.60
2023-03-11T02:35:46.705Z,7.57
2023-03-11T02:38:31.666Z,7.57
2023-03-11T02:41:16.773Z,7.57
2023-03-11T02:44:03.158Z,7.57
2023-03-11T02:46:48.571Z,7.55
2023-03-11T02:49:34.908Z,7.53
2023-03-11T02:52:21.574Z,7.51
2023-03-11T02:55:07.926Z,7.50
2023-03-11T02:57:53.029Z,7.49
2023-03-11T03:00:38.075Z,7.49
2023-03-11T03:03:23.300Z,7.48
2023-03-11T03:06:08.621Z,7.45
2023-03-11T03:08:54.463Z,7.40
2023-03-11T03:11:39.547Z,7.35
2023-03-11T03:14:24.551Z,7.21
2023-03-11T03:17:09.907Z,7.00
2023-03-11T03:19:55.160Z,6.77
2023-03-11T03:22:42.344Z,6.50
2023-03-11T03:25:27.481Z,6.29
2023-03-11T03:28:13.033Z,6.08
2023-03-11T03:31:07.018Z,5.89
2023-03-11T03:33:52.466Z,5.67
2023-03-11T03:36:37.322Z,5.50
2023-03-11T03:39:22.658Z,5.31
2023-03-11T03:42:07.637Z,5.14
2023-03-11T03:44:53.802Z,5.01
2023-03-11T03:47:39.289Z,4.89
2023-03-11T03:50:25.100Z,4.77
2023-03-11T03:53:10.427Z,4.66
2023-03-11T03:55:55.476Z,4.57
2023-03-11T03:58:40.905Z,4.47
2023-03-11T04:01:26.493Z,4.35
2023-03-11T04:04:11.803Z,4.23
2023-03-11T04:06:56.958Z,4.14
2023-03-11T04:09:43.177Z,4.05
2023-03-11T04:12:28.766Z,4.02
2023-03-11T04:15:14.091Z,4.00
2023-03-11T04:18:32.896Z,3.96
2023-03-11T04:21:19.542Z,3.89
2023-03-11T04:24:05.661Z,3.73
2023-03-11T04:26:51.933Z,3.70
2023-03-11T04:29:37.666Z,3.65
2023-03-11T04:32:25.185Z,3.63
2023-03-11T04:35:10.514Z,3.54
2023-03-11T04:38:00.665Z,3.46
2023-03-11T04:40:47.128Z,3.42
2023-03-11T04:46:41.945Z,3.35
2023-03-11T04:49:26.983Z,3.32
2023-03-11T04:55:14.675Z,3.21
2023-03-11T05:01:29.464Z,3.14
2023-03-11T05:04:15.342Z,3.05
2023-03-11T05:07:01.089Z,3.13
2023-03-11T05:09:45.957Z,3.09
2023-03-11T05:12:32.114Z,3.07
2023-03-11T05:15:18.411Z,3.03
2023-03-11T05:18:04.697Z,2.97
2023-03-11T05:20:50.130Z,2.90
2023-03-11T05:23:35.774Z,2.85
2023-03-11T05:26:20.735Z,2.78
2023-03-11T05:29:05.759Z,2.73
2023-03-11T05:34:53.717Z,2.63
2023-03-11T05:37:39.310Z,2.56
2023-03-11T05:40:24.660Z,2.52
2023-03-11T05:43:09.737Z,2.49
2023-03-11T05:45:54.989Z,2.47
2023-03-11T05:48:40.106Z,2.44
2023-03-11T05:51:25.449Z,2.39
2023-03-11T05:54:14.412Z,2.34
2023-03-11T05:56:59.862Z,2.29
2023-03-11T05:59:45.382Z,2.29
2023-03-11T06:02:30.525Z,2.30
2023-03-11T06:05:15.689Z,2.30
2023-03-11T06:08:01.096Z,2.29
2023-03-11T06:11:11.625Z,2.25
2023-03-11T06:13:58.163Z,2.20
2023-03-11T06:16:42.998Z,2.16
2023-03-11T06:19:28.157Z,2.17
2023-03-11T06:22:13.576Z,2.17
2023-03-11T06:25:10.560Z,2.16
2023-03-11T06:30:38.534Z,2.08
2023-03-11T06:33:25.821Z,1.90
2023-03-11T06:36:14.395Z,1.95
2023-03-11T06:38:59.950Z,1.92
2023-03-11T06:41:45.287Z,1.91
2023-03-11T06:44:30.303Z,1.89
2023-03-11T06:50:58.527Z,1.80
2023-03-11T06:53:47.441Z,1.73
2023-03-11T06:56:32.759Z,1.74
2023-03-11T06:59:18.572Z,1.76
2023-03-11T07:02:05.442Z,1.76
2023-03-11T07:04:51.532Z,1.79
2023-03-11T07:07:36.573Z,1.79
2023-03-11T07:10:21.889Z,1.77
2023-03-11T07:19:23.525Z,1.83
2023-03-11T07:22:08.591Z,1.81
2023-03-11T07:24:53.324Z,1.80
2023-03-11T07:27:38.321Z,1.80
2023-03-11T07:30:23.234Z,1.82
2023-03-11T07:33:08.130Z,1.84
2023-03-11T07:35:53.161Z,1.86
2023-03-11T07:38:39.945Z,1.87
2023-03-11T07:41:26.555Z,1.89
2023-03-11T07:44:13.510Z,1.90
2023-03-11T07:47:02.399Z,1.93
2023-03-11T07:49:47.607Z,1.94
2023-03-11T07:52:32.767Z,2.00
2023-03-11T07:55:17.951Z,2.03
2023-03-11T07:58:02.720Z,2.04
2023-03-11T08:04:43.861Z,2.00
2023-03-11T08:10:51.838Z,2.01
2023-03-11T08:13:38.313Z,1.96
2023-03-11T08:22:57.733Z,2.12
2023-03-11T08:25:44.732Z,2.18
2023-03-11T08:31:15.379Z,2.21
2023-03-11T08:34:08.968Z,2.22
2023-03-11T08:40:11.039Z,2.20
2023-03-11T08:42:57.244Z,2.16
2023-03-11T08:45:42.715Z,2.16
2023-03-11T08:48:28.249Z,2.19
2023-03-11T08:51:13.964Z,2.22
2023-03-11T08:54:00.101Z,2.24
2023-03-11T08:56:47.228Z,2.23
2023-03-11T08:59:32.660Z,2.23
2023-03-11T09:02:17.898Z,2.22
2023-03-11T09:05:12.545Z,2.20
2023-03-11T09:07:59.433Z,2.19
2023-03-11T09:10:45.491Z,2.20
2023-03-11T09:13:40.850Z,2.24
2023-03-11T09:16:25.841Z,2.26
2023-03-11T09:19:15.607Z,2.28
2023-03-11T09:22:01.380Z,2.28
2023-03-11T09:24:46.303Z,2.27
2023-03-11T09:27:53.414Z,2.23
2023-03-11T09:30:40.088Z,2.24
2023-03-11T09:33:25.691Z,2.38
2023-03-11T09:36:12.440Z,2.46
2023-03-11T09:38:57.650Z,2.53
2023-03-11T09:41:58.435Z,2.59
2023-03-11T09:45:17.219Z,2.59
2023-03-11T09:48:20.118Z,2.47
2023-03-11T09:51:23.761Z,2.42
2023-03-11T09:54:13.208Z,2.38
2023-03-11T09:57:01.229Z,2.36
2023-03-11T09:59:47.617Z,2.35
2023-03-11T10:02:36.068Z,2.31
2023-03-11T10:05:26.111Z,2.26
2023-03-11T10:08:41.453Z,2.22
2023-03-11T10:11:47.797Z,2.16
2023-03-11T10:14:54.138Z,2.19
2023-03-11T10:18:16.097Z,2.28
2023-03-11T10:21:25.750Z,2.46
2023-03-11T10:24:37.983Z,2.52
2023-03-11T10:27:32.203Z,2.68
2023-03-11T10:30:37.490Z,2.87
2023-03-11T10:33:31.622Z,3.00
2023-03-11T10:46:02.571Z,3.65
2023-03-11T10:51:43.548Z,3.52
2023-03-11T10:54:31.511Z,3.40
2023-03-11T10:57:24.970Z,3.27
2023-03-11T11:00:16.613Z,3.18
2023-03-11T11:03:17.022Z,3.42
2023-03-11T11:09:13.613Z,3.79
2023-03-11T11:21:39.266Z,4.26
2023-03-11T11:24:27.802Z,4.07
2023-03-11T11:27:26.405Z,4.00
2023-03-11T11:47:11.868Z,4.36
2023-03-11T11:50:01.897Z,4.21
2023-03-11T11:52:55.604Z,4.23
2023-03-11T11:58:41.844Z,4.26
2023-03-11T12:01:46.286Z,4.29
2023-03-11T12:04:37.289Z,4.42
2023-03-11T12:07:40.998Z,4.52
2023-03-11T12:10:33.275Z,4.56
2023-03-11T12:13:43.356Z,4.58
2023-03-11T12:16:40.531Z,4.64
2023-03-11T12:19:36.104Z,4.77
2023-03-11T12:22:32.925Z,4.93
2023-03-11T12:25:39.561Z,4.99
2023-03-11T12:28:36.352Z,4.97
2023-03-11T12:31:23.989Z,4.89
2023-03-11T12:34:16.991Z,4.82
2023-03-11T12:37:12.344Z,4.70
2023-03-11T12:46:45.313Z,5.02
2023-03-11T12:49:40.991Z,5.32
2023-03-11T12:52:29.743Z,5.45
2023-03-11T12:55:17.967Z,5.36
2023-03-11T12:58:36.719Z,5.22
2023-03-11T13:02:03.438Z,5.00
2023-03-11T13:05:23.806Z,4.76
2023-03-11T13:17:42.805Z,5.37
2023-03-11T13:26:43.119Z,5.46
2023-03-11T13:39:51.388Z,4.87
2023-03-11T13:45:39.719Z,4.47
2023-03-11T13:51:20.030Z,4.55
2023-03-11T13:57:22.825Z,5.02
2023-03-11T14:08:56.969Z,4.96
2023-03-11T14:27:57.960Z,4.26
2023-03-11T14:33:39.250Z,4.23
2023-03-11T14:36:28.486Z,4.19
2023-03-11T14:45:50.357Z,3.86
2023-03-11T14:48:38.988Z,3.78
2023-03-11T14:51:30.770Z,3.66
2023-03-11T14:54:24.751Z,3.57
2023-03-11T14:57:23.332Z,3.48
2023-03-11T15:00:21.377Z,3.37
2023-03-11T15:03:12.034Z,3.35
2023-03-11T15:06:09.265Z,3.32
2023-03-11T15:09:04.989Z,3.31
2023-03-11T15:11:57.809Z,3.32
2023-03-11T15:14:50.281Z,3.27
2023-03-11T15:17:42.902Z,3.23
2023-03-11T15:20:32.605Z,3.18
2023-03-11T15:23:22.082Z,3.18
2023-03-11T15:26:18.459Z,3.21
2023-03-11T15:29:13.615Z,3.22
2023-03-11T15:31:59.381Z,3.20
2023-03-11T15:34:44.561Z,3.19
2023-03-11T15:37:29.510Z,3.19
2023-03-11T15:40:24.547Z,3.16
2023-03-11T15:43:14.367Z,3.14
2023-03-11T15:46:01.631Z,3.12
2023-03-11T15:48:47.059Z,3.10
2023-03-11T15:51:32.061Z,3.08
2023-03-11T15:54:17.449Z,3.05
2023-03-11T15:57:06.304Z,3.03
2023-03-11T15:59:53.331Z,2.99
2023-03-11T16:02:38.519Z,2.97
2023-03-11T16:05:25.180Z,2.94
2023-03-11T16:10:58.741Z,2.90
2023-03-11T16:13:44.005Z,2.89
2023-03-11T16:16:29.506Z,2.88
2023-03-11T16:19:18.679Z,2.86
2023-03-11T16:22:04.316Z,2.84
2023-03-11T16:24:52.682Z,2.80
2023-03-11T16:27:38.219Z,2.78
2023-03-11T16:30:31.546Z,2.77
2023-03-11T16:33:17.414Z,2.75
2023-03-11T16:36:04.218Z,2.76
2023-03-11T16:38:50.432Z,2.76
2023-03-11T16:41:44.397Z,2.75
2023-03-11T16:44:30.110Z,2.69
2023-03-11T16:47:15.363Z,2.68
2023-03-11T16:50:00.771Z,2.64
2023-03-11T16:55:47.321Z,2.59
2023-03-11T16:58:32.538Z,2.56
2023-03-11T17:01:18.906Z,2.53
2023-03-11T17:04:07.854Z,2.48
2023-03-11T17:06:53.885Z,2.47
2023-03-11T17:09:40.043Z,2.46
2023-03-11T17:12:27.896Z,2.41
2023-03-11T17:15:13.101Z,2.41
2023-03-11T17:21:09.817Z,2.35
2023-03-11T17:23:55.073Z,2.32
2023-03-11T17:26:40.156Z,2.30
2023-03-11T17:29:25.204Z,2.28
2023-03-11T17:32:15.682Z,2.26
2023-03-11T17:35:02.843Z,2.23
2023-03-11T17:40:42.245Z,2.18
2023-03-11T17:43:28.260Z,2.14
2023-03-11T17:46:17.145Z,2.11
2023-03-11T17:49:02.441Z,2.10
2023-03-11T17:51:48.655Z,2.09
2023-03-11T17:57:13.369Z,2.11
2023-03-11T18:02:55.529Z,2.07
2023-03-11T18:05:53.421Z,2.00
2023-03-11T18:08:42.501Z,2.00
2023-03-11T18:11:29.106Z,1.99
2023-03-11T18:14:15.452Z,1.96
2023-03-11T18:17:02.057Z,1.92
2023-03-11T18:19:46.925Z,1.90
2023-03-11T18:22:34.127Z,1.87
2023-03-11T18:28:37.017Z,1.81
2023-03-11T18:31:25.650Z,1.79
2023-03-11T18:37:26.981Z,1.79
2023-03-11T18:42:59.730Z,1.73
2023-03-11T18:45:46.366Z,1.67
2023-03-11T18:54:48.840Z,1.41
2023-03-11T18:57:35.445Z,1.33
2023-03-11T19:00:23.297Z,1.23
2023-03-11T19:03:12.957Z,1.19
2023-03-11T19:08:55.245Z,1.13
2023-03-11T19:11:41.700Z,1.10
2023-03-11T19:14:28.128Z,1.07
2023-03-11T19:17:16.115Z,1.03
2023-03-11T19:26:44.717Z,0.82
2023-03-11T19:30:08.775Z,0.70
2023-03-11T19:33:33.826Z,0.68
2023-03-11T19:42:41.222Z,0.69
2023-03-11T19:49:30.106Z,0.70
2023-03-11T19:52:16.042Z,0.64
2023-03-11T19:55:01.798Z,0.62
2023-03-11T19:57:47.216Z,0.57
2023-03-11T20:00:32.118Z,0.51
2023-03-11T20:03:18.074Z,0.45
2023-03-11T20:06:06.510Z,0.40
2023-03-11T20:08:51.678Z,0.34
2023-03-11T20:11:48.389Z,0.30
2023-03-11T20:14:37.477Z,0.27
2023-03-11T20:20:42.575Z,0.33
2023-03-11T20:29:40.800Z,0.30
2023-03-11T20:32:29.088Z,0.22
2023-03-11T20:35:15.425Z,0.26
2023-03-11T20:38:02.149Z,0.21
2023-03-11T20:41:23.163Z,0.18
2023-03-11T20:44:12.605Z,0.13
2023-03-11T20:46:57.552Z,0.08
2023-03-11T20:49:43.342Z,0.04
2023-03-11T20:52:33.712Z,0.03
2023-03-11T20:55:19.010Z,0.05
2023-03-11T20:58:04.504Z,0.07
2023-03-11T21:00:50.095Z,0.08
2023-03-11T21:03:35.303Z,0.09
2023-03-11T21:06:32.026Z,0.08
2023-03-11T21:12:18.736Z,0.05
2023-03-11T21:18:08.577Z,-0.02
2023-03-11T21:20:53.762Z,-0.05
2023-03-11T21:23:40.841Z,-0.08
2023-03-11T21:29:12.863Z,-0.13
2023-03-11T21:32:25.619Z,-0.14
2023-03-11T21:35:10.807Z,-0.09
2023-03-11T21:43:43.604Z,-0.07
2023-03-11T21:46:32.429Z,-0.09
2023-03-11T21:49:17.792Z,-0.12
2023-03-11T21:52:03.644Z,-0.15
2023-03-11T21:54:48.746Z,-0.17
2023-03-11T21:57:34.400Z,-0.21
2023-03-11T22:00:19.476Z,-0.25
2023-03-11T22:03:05.121Z,-0.27
2023-03-11T22:05:56.012Z,-0.29
2023-03-11T22:08:42.050Z,-0.27
2023-03-11T22:11:27.927Z,-0.25
2023-03-11T22:14:13.364Z,-0.23
2023-03-11T22:16:59.018Z,-0.23
2023-03-11T22:19:44.623Z,-0.23
2023-03-11T22:22:29.716Z,-0.25
2023-03-11T22:25:15.854Z,-0.27
2023-03-11T22:28:01.187Z,-0.28
2023-03-11T22:30:46.361Z,-0.30
2023-03-11T22:36:11.431Z,-0.38
2023-03-11T22:38:56.840Z,-0.42
2023-03-11T22:41:41.750Z,-0.44
2023-03-11T22:44:27.818Z,-0.42
2023-03-11T22:47:14.158Z,-0.39
2023-03-11T22:49:59.406Z,-0.38
2023-03-11T22:52:44.777Z,-0.37
2023-03-11T22:55:29.736Z,-0.38
2023-03-11T22:58:15.139Z,-0.41
2023-03-11T23:01:00.444Z,-0.45
2023-03-11T23:06:38.680Z,-0.54
2023-03-11T23:09:24.221Z,-0.58
2023-03-11T23:12:09.628Z,-0.62
2023-03-11T23:14:55.006Z,-0.62
2023-03-11T23:20:35.739Z,-0.56
2023-03-11T23:23:25.546Z,-0.51
2023-03-11T23:26:12.348Z,-0.47
2023-03-11T23:28:57.822Z,-0.45
2023-03-11T23:31:42.563Z,-0.43
2023-03-11T23:34:27.632Z,-0.42
2023-03-11T23:37:12.835Z,-0.46
2023-03-11T23:40:09.405Z,-0.49
2023-03-11T23:42:55.036Z,-0.56
2023-03-11T23:48:35.731Z,-0.57
2023-03-11T23:54:14.360Z,-0.63
2023-03-11T23:56:59.474Z,-0.64
